Rogers Pass
UTM 11U Easting = 46 4061, Northing = 56 83360     Elevation = 1305 m
Note to Users: This site contains raw data and is presented "as is" and in real time. Although reasonable care is exercised in providing this information, inaccuracies or omissions may occur due to the properties of weather and data collection systems. The Avalanche Control Section, responsible for its collection, disclaims all responsibility for the accuracy of the information.
Date Max Temp (deg C) Min Temp (deg C) Rel Hum (%) 1 Hr Precip (mm) HS (cm) Wind Dir (1 Hr Avg) Wind Spd (kph) (1 Hr Avg) Max Wind Speed (kph)
2021-01-17 07:00 -5 -5 98 0.9 150 S 9 19
2021-01-17 08:00 -5 -5 98 0.3 150 SW 11 27
2021-01-17 09:00 -5 -5 98 0.4 150 SW 12 23
2021-01-17 10:00 -5 -5 97 0.4 153 SW 11 25
2021-01-17 11:00 -4 -5 97 0.3 151 S 15 31
2021-01-17 12:00 -4 -4 96 0.2 149 S 15 31
2021-01-17 13:00 -3 -4 95 0.1 150 S 14 33
2021-01-17 14:00 -3 -3 95 0.2 150 S 15 31
2021-01-17 15:00 -3 -3 96 0.2 149 SW 15 30
2021-01-17 16:00 -3 -3 98 0.3 148 S 16 31
2021-01-17 17:00 -3 -3 99 0.1 150 S 13 29
2021-01-17 18:00 -2 -3 100 0.1 151 S 14 30
2021-01-17 19:00 -3 -3 99 0.1 151 SW 12 24
2021-01-17 20:00 -3 -3 100 0.2 151 SW 14 29
2021-01-17 21:00 -3 -3 100 0.1 152 SW 11 26
2021-01-17 22:00 -3 -3 100 0.1 152 SW 11 24
2021-01-17 23:00 -3 -3 100 0.1 150 SW 10 25
2021-01-18 00:00 -3 -3 99 0.0 150 S 11 23
2021-01-18 01:00 -3 -3 100 0.0 150 S 10 24
2021-01-18 02:00 -3 -3 100 0.2 150 SW 7 21
2021-01-18 03:00 -3 -3 100 0.1 150 SW 8 19
2021-01-18 04:00 -3 -3 100 0.1 150 SW 8 20
2021-01-18 05:00 -3 -3 100 0.1 150 SW 9 24
2021-01-18 06:00 -3 -3 100 0.0 150 SW 7 20